sensor_id;sensor_type;location;lat;lon;timestamp;P1;durP1;ratioP1;P2;durP2;ratioP2
64018;SDS011;66942;52.138;5.216;2023-07-22T00:00:09;11.8;;;11.0;;
64018;SDS011;66942;52.138;5.216;2023-07-22T00:03:22;11.7;;;10.9;;
64018;SDS011;66942;52.138;5.216;2023-07-22T00:04:58;11.9;;;11.1;;
64018;SDS011;66942;52.138;5.216;2023-07-22T00:06:34;11.3;;;10.5;;
64018;SDS011;66942;52.138;5.216;2023-07-22T00:08:10;12.1;;;11.3;;
64018;SDS011;66942;52.138;5.216;2023-07-22T00:11:22;11.7;;;10.9;;
64018;SDS011;66942;52.138;5.216;2023-07-22T00:12:58;11.6;;;10.8;;
64018;SDS011;66942;52.138;5.216;2023-07-22T00:14:38;11.4;;;10.7;;
64018;SDS011;66942;52.138;5.216;2023-07-22T00:17:52;11.6;;;10.8;;
64018;SDS011;66942;52.138;5.216;2023-07-22T00:19:28;11.6;;;10.8;;
64018;SDS011;66942;52.138;5.216;2023-07-22T00:21:04;11.6;;;10.8;;
64018;SDS011;66942;52.138;5.216;2023-07-22T00:24:16;12.8;;;11.9;;
64018;SDS011;66942;52.138;5.216;2023-07-22T00:25:52;12.7;;;11.8;;
64018;SDS011;66942;52.138;5.216;2023-07-22T00:27:28;12.4;;;11.5;;
64018;SDS011;66942;52.138;5.216;2023-07-22T00:30:40;13.0;;;12.0;;
64018;SDS011;66942;52.138;5.216;2023-07-22T00:32:17;12.3;;;11.5;;
64018;SDS011;66942;52.138;5.216;2023-07-22T00:33:53;12.5;;;11.6;;
64018;SDS011;66942;52.138;5.216;2023-07-22T00:35:29;13.8;;;12.7;;
64018;SDS011;66942;52.138;5.216;2023-07-22T00:38:42;13.5;;;12.5;;
64018;SDS011;66942;52.138;5.216;2023-07-22T00:40:18;12.7;;;11.8;;
64018;SDS011;66942;52.138;5.216;2023-07-22T00:41:54;14.4;;;13.2;;
64018;SDS011;66942;52.138;5.216;2023-07-22T00:45:07;14.0;;;12.9;;
64018;SDS011;66942;52.138;5.216;2023-07-22T00:46:44;14.0;;;12.9;;
64018;SDS011;66942;52.138;5.216;2023-07-22T00:48:20;15.1;;;14.0;;
64018;SDS011;66942;52.138;5.216;2023-07-22T00:51:35;14.5;;;13.4;;
64018;SDS011;66942;52.138;5.216;2023-07-22T00:53:11;14.7;;;13.5;;
64018;SDS011;66942;52.138;5.216;2023-07-22T00:54:48;12.8;;;11.9;;
64018;SDS011;66942;52.138;5.216;2023-07-22T00:56:24;13.5;;;12.6;;
64018;SDS011;66942;52.138;5.216;2023-07-22T00:59:38;14.0;;;12.8;;
64018;SDS011;66942;52.138;5.216;2023-07-22T01:01:15;14.3;;;13.2;;
64018;SDS011;66942;52.138;5.216;2023-07-22T01:02:51;14.0;;;13.0;;
64018;SDS011;66942;52.138;5.216;2023-07-22T01:06:04;13.8;;;12.8;;
64018;SDS011;66942;52.138;5.216;2023-07-22T01:07:40;14.1;;;13.0;;
64018;SDS011;66942;52.138;5.216;2023-07-22T01:09:17;14.0;;;12.9;;
64018;SDS011;66942;52.138;5.216;2023-07-22T01:12:29;13.1;;;12.2;;
64018;SDS011;66942;52.138;5.216;2023-07-22T01:14:06;14.7;;;13.6;;
64018;SDS011;66942;52.138;5.216;2023-07-22T01:15:42;14.5;;;13.4;;
64018;SDS011;66942;52.138;5.216;2023-07-22T01:17:19;14.5;;;13.3;;
64018;SDS011;66942;52.138;5.216;2023-07-22T01:20:33;14.4;;;13.3;;
64018;SDS011;66942;52.138;5.216;2023-07-22T01:22:11;15.4;;;14.2;;
64018;SDS011;66942;52.138;5.216;2023-07-22T01:23:49;15.2;;;14.0;;
64018;SDS011;66942;52.138;5.216;2023-07-22T01:27:03;15.8;;;14.5;;
64018;SDS011;66942;52.138;5.216;2023-07-22T01:28:43;16.3;;;14.9;;
64018;SDS011;66942;52.138;5.216;2023-07-22T01:30:20;14.9;;;13.7;;
64018;SDS011;66942;52.138;5.216;2023-07-22T01:31:56;13.7;;;12.7;;
64018;SDS011;66942;52.138;5.216;2023-07-22T01:35:08;14.1;;;12.9;;
64018;SDS011;66942;52.138;5.216;2023-07-22T01:36:45;15.1;;;13.7;;
64018;SDS011;66942;52.138;5.216;2023-07-22T01:38:22;15.1;;;13.9;;
64018;SDS011;66942;52.138;5.216;2023-07-22T01:41:34;15.3;;;14.0;;
64018;SDS011;66942;52.138;5.216;2023-07-22T01:43:11;14.2;;;13.0;;
64018;SDS011;66942;52.138;5.216;2023-07-22T01:44:47;15.3;;;14.0;;
64018;SDS011;66942;52.138;5.216;2023-07-22T01:47:59;15.0;;;13.7;;
64018;SDS011;66942;52.138;5.216;2023-07-22T01:49:35;15.1;;;13.8;;
64018;SDS011;66942;52.138;5.216;2023-07-22T01:51:11;15.0;;;13.7;;
64018;SDS011;66942;52.138;5.216;2023-07-22T01:54:23;14.9;;;13.7;;
64018;SDS011;66942;52.138;5.216;2023-07-22T01:56:00;17.0;;;15.4;;
64018;SDS011;66942;52.138;5.216;2023-07-22T01:57:36;15.9;;;14.4;;
64018;SDS011;66942;52.138;5.216;2023-07-22T01:59:12;15.7;;;14.3;;
64018;SDS011;66942;52.138;5.216;2023-07-22T02:02:26;16.4;;;15.0;;
64018;SDS011;66942;52.138;5.216;2023-07-22T02:04:02;15.7;;;14.4;;
64018;SDS011;66942;52.138;5.216;2023-07-22T02:05:38;16.5;;;15.0;;
64018;SDS011;66942;52.138;5.216;2023-07-22T02:08:50;17.11;;;15.5;;
64018;SDS011;66942;52.138;5.216;2023-07-22T02:10:26;18.3;;;16.61;;
64018;SDS011;66942;52.138;5.216;2023-07-22T02:12:03;17.11;;;15.6;;
64018;SDS011;66942;52.138;5.216;2023-07-22T02:15:16;17.7;;;16.11;;
64018;SDS011;66942;52.138;5.216;2023-07-22T02:16:52;17.7;;;16.11;;
64018;SDS011;66942;52.138;5.216;2023-07-22T02:18:28;18.5;;;16.9;;
64018;SDS011;66942;52.138;5.216;2023-07-22T02:20:06;18.41;;;16.9;;
64018;SDS011;66942;52.138;5.216;2023-07-22T02:23:20;17.2;;;15.7;;
64018;SDS011;66942;52.138;5.216;2023-07-22T02:24:56;18.5;;;16.8;;
64018;SDS011;66942;52.138;5.216;2023-07-22T02:26:33;19.8;;;17.91;;
64018;SDS011;66942;52.138;5.216;2023-07-22T02:29:45;19.2;;;17.41;;
64018;SDS011;66942;52.138;5.216;2023-07-22T02:31:21;20.5;;;18.7;;
64018;SDS011;66942;52.138;5.216;2023-07-22T02:32:57;21.2;;;19.2;;
64018;SDS011;66942;52.138;5.216;2023-07-22T02:36:09;19.8;;;18.0;;
64018;SDS011;66942;52.138;5.216;2023-07-22T02:37:45;20.5;;;18.61;;
64018;SDS011;66942;52.138;5.216;2023-07-22T02:39:21;18.91;;;17.2;;
64018;SDS011;66942;52.138;5.216;2023-07-22T02:41:01;20.9;;;18.91;;
64018;SDS011;66942;52.138;5.216;2023-07-22T02:44:15;21.4;;;19.41;;
64018;SDS011;66942;52.138;5.216;2023-07-22T02:45:52;20.9;;;18.91;;
64018;SDS011;66942;52.138;5.216;2023-07-22T02:47:29;21.2;;;19.2;;
64018;SDS011;66942;52.138;5.216;2023-07-22T02:50:41;19.61;;;17.8;;
64018;SDS011;66942;52.138;5.216;2023-07-22T02:52:17;19.3;;;17.61;;
64018;SDS011;66942;52.138;5.216;2023-07-22T02:53:53;19.8;;;17.91;;
64018;SDS011;66942;52.138;5.216;2023-07-22T02:57:06;20.8;;;18.8;;
64018;SDS011;66942;52.138;5.216;2023-07-22T02:58:42;20.5;;;18.61;;
64018;SDS011;66942;52.138;5.216;2023-07-22T03:00:18;21.3;;;19.2;;
64018;SDS011;66942;52.138;5.216;2023-07-22T03:01:56;21.5;;;19.5;;
64018;SDS011;66942;52.138;5.216;2023-07-22T03:05:08;20.41;;;18.61;;
64018;SDS011;66942;52.138;5.216;2023-07-22T03:06:46;20.6;;;18.7;;
64018;SDS011;66942;52.138;5.216;2023-07-22T03:08:22;20.11;;;18.3;;
64018;SDS011;66942;52.138;5.216;2023-07-22T03:11:34;20.5;;;18.5;;
64018;SDS011;66942;52.138;5.216;2023-07-22T03:13:11;21.8;;;19.61;;
64018;SDS011;66942;52.138;5.216;2023-07-22T03:14:47;20.0;;;18.2;;
64018;SDS011;66942;52.138;5.216;2023-07-22T03:17:59;21.7;;;19.61;;
64018;SDS011;66942;52.138;5.216;2023-07-22T03:19:35;20.6;;;18.7;;
64018;SDS011;66942;52.138;5.216;2023-07-22T03:21:11;22.3;;;20.11;;
64018;SDS011;66942;52.138;5.216;2023-07-22T03:22:47;20.0;;;18.2;;
64018;SDS011;66942;52.138;5.216;2023-07-22T03:26:00;19.0;;;17.2;;
64018;SDS011;66942;52.138;5.216;2023-07-22T03:27:37;22.8;;;20.5;;
64018;SDS011;66942;52.138;5.216;2023-07-22T03:29:14;21.0;;;18.91;;
64018;SDS011;66942;52.138;5.216;2023-07-22T03:32:26;21.0;;;19.11;;
64018;SDS011;66942;52.138;5.216;2023-07-22T03:34:02;22.1;;;20.11;;
64018;SDS011;66942;52.138;5.216;2023-07-22T03:35:38;21.4;;;19.41;;
64018;SDS011;66942;52.138;5.216;2023-07-22T03:38:50;22.4;;;20.3;;
64018;SDS011;66942;52.138;5.216;2023-07-22T03:40:26;21.5;;;19.5;;
64018;SDS011;66942;52.138;5.216;2023-07-22T03:42:03;20.41;;;18.5;;
64018;SDS011;66942;52.138;5.216;2023-07-22T03:43:40;20.6;;;18.7;;
64018;SDS011;66942;52.138;5.216;2023-07-22T03:46:53;22.7;;;20.6;;
64018;SDS011;66942;52.138;5.216;2023-07-22T03:48:29;21.0;;;19.2;;
64018;SDS011;66942;52.138;5.216;2023-07-22T03:50:06;20.41;;;18.61;;
64018;SDS011;66942;52.138;5.216;2023-07-22T03:53:18;21.7;;;19.61;;
64018;SDS011;66942;52.138;5.216;2023-07-22T03:54:54;23.0;;;20.7;;
64018;SDS011;66942;52.138;5.216;2023-07-22T03:56:31;20.5;;;18.7;;
64018;SDS011;66942;52.138;5.216;2023-07-22T03:59:43;21.4;;;19.5;;
64018;SDS011;66942;52.138;5.216;2023-07-22T04:01:19;21.4;;;19.5;;
64018;SDS011;66942;52.138;5.216;2023-07-22T04:02:55;22.7;;;20.6;;
64018;SDS011;66942;52.138;5.216;2023-07-22T04:06:07;23.9;;;21.5;;
64018;SDS011;66942;52.138;5.216;2023-07-22T04:07:44;20.41;;;18.7;;
64018;SDS011;66942;52.138;5.216;2023-07-22T04:09:21;21.4;;;19.5;;
64018;SDS011;66942;52.138;5.216;2023-07-22T04:10:57;21.6;;;19.7;;
64018;SDS011;66942;52.138;5.216;2023-07-22T04:14:10;20.0;;;18.2;;
64018;SDS011;66942;52.138;5.216;2023-07-22T04:15:46;19.8;;;18.11;;
64018;SDS011;66942;52.138;5.216;2023-07-22T04:17:22;23.2;;;21.1;;
64018;SDS011;66942;52.138;5.216;2023-07-22T04:20:34;21.3;;;19.5;;
64018;SDS011;66942;52.138;5.216;2023-07-22T04:22:11;22.9;;;20.9;;
64018;SDS011;66942;52.138;5.216;2023-07-22T04:23:47;20.11;;;18.3;;
64018;SDS011;66942;52.138;5.216;2023-07-22T04:26:59;21.5;;;19.7;;
64018;SDS011;66942;52.138;5.216;2023-07-22T04:28:37;19.91;;;18.2;;
64018;SDS011;66942;52.138;5.216;2023-07-22T04:30:13;20.5;;;18.8;;
64018;SDS011;66942;52.138;5.216;2023-07-22T04:31:49;20.0;;;18.3;;
64018;SDS011;66942;52.138;5.216;2023-07-22T04:35:03;19.8;;;18.2;;
64018;SDS011;66942;52.138;5.216;2023-07-22T04:36:39;21.0;;;19.0;;
64018;SDS011;66942;52.138;5.216;2023-07-22T04:38:16;19.91;;;18.3;;
64018;SDS011;66942;52.138;5.216;2023-07-22T04:41:28;19.41;;;17.91;;
64018;SDS011;66942;52.138;5.216;2023-07-22T04:43:04;19.91;;;18.2;;
64018;SDS011;66942;52.138;5.216;2023-07-22T04:44:40;19.61;;;17.91;;
64018;SDS011;66942;52.138;5.216;2023-07-22T04:47:52;19.7;;;18.11;;
64018;SDS011;66942;52.138;5.216;2023-07-22T04:49:28;18.2;;;16.7;;
64018;SDS011;66942;52.138;5.216;2023-07-22T04:51:04;17.8;;;16.4;;
64018;SDS011;66942;52.138;5.216;2023-07-22T04:54:19;20.41;;;18.5;;
64018;SDS011;66942;52.138;5.216;2023-07-22T04:55:55;18.61;;;17.11;;
64018;SDS011;66942;52.138;5.216;2023-07-22T04:57:31;18.7;;;17.11;;
64018;SDS011;66942;52.138;5.216;2023-07-22T04:59:07;18.2;;;16.7;;
64018;SDS011;66942;52.138;5.216;2023-07-22T05:02:19;18.7;;;17.2;;
64018;SDS011;66942;52.138;5.216;2023-07-22T05:03:55;19.3;;;17.61;;
64018;SDS011;66942;52.138;5.216;2023-07-22T05:05:31;18.3;;;16.8;;
64018;SDS011;66942;52.138;5.216;2023-07-22T05:08:44;18.61;;;17.0;;
64018;SDS011;66942;52.138;5.216;2023-07-22T05:10:20;19.91;;;18.2;;
64018;SDS011;66942;52.138;5.216;2023-07-22T05:11:56;19.61;;;17.91;;
64018;SDS011;66942;52.138;5.216;2023-07-22T05:16:46;18.41;;;16.9;;
64018;SDS011;66942;52.138;5.216;2023-07-22T05:18:22;19.41;;;17.8;;
64018;SDS011;66942;52.138;5.216;2023-07-22T05:19:58;20.41;;;18.61;;
64018;SDS011;66942;52.138;5.216;2023-07-22T05:23:11;21.1;;;19.3;;
64018;SDS011;66942;52.138;5.216;2023-07-22T05:24:47;19.61;;;18.0;;
64018;SDS011;66942;52.138;5.216;2023-07-22T05:26:23;19.91;;;18.11;;
64018;SDS011;66942;52.138;5.216;2023-07-22T05:29:35;21.4;;;19.41;;
64018;SDS011;66942;52.138;5.216;2023-07-22T05:31:11;20.6;;;18.8;;
64018;SDS011;66942;52.138;5.216;2023-07-22T05:32:47;23.0;;;20.8;;
64018;SDS011;66942;52.138;5.216;2023-07-22T05:36:03;23.8;;;21.6;;
64018;SDS011;66942;52.138;5.216;2023-07-22T05:37:40;23.5;;;21.1;;
64018;SDS011;66942;52.138;5.216;2023-07-22T05:39:16;23.9;;;21.6;;
64018;SDS011;66942;52.138;5.216;2023-07-22T05:40:52;23.0;;;20.8;;
64018;SDS011;66942;52.138;5.216;2023-07-22T05:44:04;24.6;;;22.3;;
64018;SDS011;66942;52.138;5.216;2023-07-22T05:45:40;25.4;;;22.9;;
64018;SDS011;66942;52.138;5.216;2023-07-22T05:47:16;24.6;;;22.4;;
64018;SDS011;66942;52.138;5.216;2023-07-22T05:50:28;24.6;;;22.4;;
64018;SDS011;66942;52.138;5.216;2023-07-22T05:52:05;27.6;;;24.9;;
64018;SDS011;66942;52.138;5.216;2023-07-22T05:53:42;26.6;;;24.0;;
64018;SDS011;66942;52.138;5.216;2023-07-22T05:56:54;27.2;;;24.5;;
64018;SDS011;66942;52.138;5.216;2023-07-22T05:58:30;25.8;;;23.4;;
64018;SDS011;66942;52.138;5.216;2023-07-22T06:00:07;27.8;;;25.1;;
64018;SDS011;66942;52.138;5.216;2023-07-22T06:03:19;27.5;;;24.8;;
64018;SDS011;66942;52.138;5.216;2023-07-22T06:04:56;27.2;;;24.5;;
64018;SDS011;66942;52.138;5.216;2023-07-22T06:06:32;26.6;;;24.1;;
64018;SDS011;66942;52.138;5.216;2023-07-22T06:08:08;29.3;;;26.5;;
64018;SDS011;66942;52.138;5.216;2023-07-22T06:11:20;27.7;;;25.0;;
64018;SDS011;66942;52.138;5.216;2023-07-22T06:12:56;28.8;;;26.0;;
64018;SDS011;66942;52.138;5.216;2023-07-22T06:14:32;25.9;;;23.5;;
64018;SDS011;66942;52.138;5.216;2023-07-22T06:17:44;26.7;;;24.0;;
64018;SDS011;66942;52.138;5.216;2023-07-22T06:19:21;27.5;;;24.7;;
64018;SDS011;66942;52.138;5.216;2023-07-22T06:20:57;28.6;;;25.9;;
64018;SDS011;66942;52.138;5.216;2023-07-22T06:24:09;28.1;;;25.4;;
64018;SDS011;66942;52.138;5.216;2023-07-22T06:25:45;27.8;;;25.3;;
64018;SDS011;66942;52.138;5.216;2023-07-22T06:27:21;29.5;;;26.5;;
64018;SDS011;66942;52.138;5.216;2023-07-22T06:28:58;28.2;;;25.4;;
64018;SDS011;66942;52.138;5.216;2023-07-22T06:32:11;28.2;;;25.4;;
64018;SDS011;66942;52.138;5.216;2023-07-22T06:33:47;27.7;;;25.1;;
64018;SDS011;66942;52.138;5.216;2023-07-22T06:35:24;28.9;;;26.0;;
64018;SDS011;66942;52.138;5.216;2023-07-22T06:38:36;29.8;;;26.8;;
64018;SDS011;66942;52.138;5.216;2023-07-22T06:40:12;29.0;;;26.2;;
64018;SDS011;66942;52.138;5.216;2023-07-22T06:41:48;28.3;;;25.4;;
64018;SDS011;66942;52.138;5.216;2023-07-22T06:45:00;28.9;;;26.0;;
64018;SDS011;66942;52.138;5.216;2023-07-22T06:46:36;28.4;;;25.7;;
64018;SDS011;66942;52.138;5.216;2023-07-22T06:48:13;26.5;;;24.0;;
64018;SDS011;66942;52.138;5.216;2023-07-22T06:51:25;26.5;;;24.0;;
64018;SDS011;66942;52.138;5.216;2023-07-22T06:53:01;26.4;;;23.9;;
64018;SDS011;66942;52.138;5.216;2023-07-22T06:54:37;27.5;;;24.8;;
64018;SDS011;66942;52.138;5.216;2023-07-22T06:56:13;27.5;;;24.7;;
64018;SDS011;66942;52.138;5.216;2023-07-22T06:59:25;27.3;;;24.7;;
64018;SDS011;66942;52.138;5.216;2023-07-22T07:01:02;26.6;;;24.1;;
64018;SDS011;66942;52.138;5.216;2023-07-22T07:02:38;25.7;;;23.2;;
64018;SDS011;66942;52.138;5.216;2023-07-22T07:05:51;25.9;;;23.4;;
64018;SDS011;66942;52.138;5.216;2023-07-22T07:07:28;25.4;;;23.0;;
64018;SDS011;66942;52.138;5.216;2023-07-22T07:09:04;26.0;;;23.4;;
64018;SDS011;66942;52.138;5.216;2023-07-22T07:12:16;25.3;;;23.0;;
64018;SDS011;66942;52.138;5.216;2023-07-22T07:13:52;25.6;;;23.2;;
64018;SDS011;66942;52.138;5.216;2023-07-22T07:15:28;25.5;;;22.9;;
64018;SDS011;66942;52.138;5.216;2023-07-22T07:17:05;25.7;;;23.1;;
64018;SDS011;66942;52.138;5.216;2023-07-22T07:20:17;23.6;;;21.5;;
64018;SDS011;66942;52.138;5.216;2023-07-22T07:21:53;24.9;;;22.6;;
64018;SDS011;66942;52.138;5.216;2023-07-22T07:23:29;24.3;;;22.0;;
64018;SDS011;66942;52.138;5.216;2023-07-22T07:26:42;23.7;;;21.6;;
64018;SDS011;66942;52.138;5.216;2023-07-22T07:28:18;24.6;;;22.3;;
64018;SDS011;66942;52.138;5.216;2023-07-22T07:29:54;24.2;;;21.9;;
64018;SDS011;66942;52.138;5.216;2023-07-22T07:33:07;23.6;;;21.4;;
64018;SDS011;66942;52.138;5.216;2023-07-22T07:34:43;24.5;;;22.0;;
64018;SDS011;66942;52.138;5.216;2023-07-22T07:36:19;24.6;;;22.2;;
64018;SDS011;66942;52.138;5.216;2023-07-22T07:39:31;23.4;;;21.2;;
64018;SDS011;66942;52.138;5.216;2023-07-22T07:41:07;21.3;;;19.5;;
64018;SDS011;66942;52.138;5.216;2023-07-22T07:42:44;21.8;;;19.8;;
64018;SDS011;66942;52.138;5.216;2023-07-22T07:44:20;21.9;;;19.7;;
64018;SDS011;66942;52.138;5.216;2023-07-22T07:47:52;20.7;;;18.91;;
64018;SDS011;66942;52.138;5.216;2023-07-22T07:49:28;22.5;;;20.41;;
64018;SDS011;66942;52.138;5.216;2023-07-22T07:51:04;22.4;;;20.2;;
64018;SDS011;66942;52.138;5.216;2023-07-22T07:52:40;20.7;;;18.7;;
64018;SDS011;66942;52.138;5.216;2023-07-22T07:55:52;21.3;;;19.3;;
64018;SDS011;66942;52.138;5.216;2023-07-22T07:57:28;21.4;;;19.5;;
64018;SDS011;66942;52.138;5.216;2023-07-22T07:59:05;21.4;;;19.5;;
64018;SDS011;66942;52.138;5.216;2023-07-22T08:02:17;20.3;;;18.41;;
64018;SDS011;66942;52.138;5.216;2023-07-22T08:03:53;20.11;;;18.0;;
64018;SDS011;66942;52.138;5.216;2023-07-22T08:05:29;18.3;;;16.5;;
64018;SDS011;66942;52.138;5.216;2023-07-22T08:08:42;18.8;;;17.11;;
64018;SDS011;66942;52.138;5.216;2023-07-22T08:10:18;18.61;;;16.8;;
64018;SDS011;66942;52.138;5.216;2023-07-22T08:11:54;17.5;;;15.7;;
64018;SDS011;66942;52.138;5.216;2023-07-22T08:15:08;16.61;;;15.1;;
64018;SDS011;66942;52.138;5.216;2023-07-22T08:16:45;16.8;;;15.2;;
64018;SDS011;66942;52.138;5.216;2023-07-22T08:18:21;15.7;;;14.3;;
64018;SDS011;66942;52.138;5.216;2023-07-22T08:19:57;15.6;;;14.2;;
64018;SDS011;66942;52.138;5.216;2023-07-22T08:23:09;15.6;;;13.7;;
64018;SDS011;66942;52.138;5.216;2023-07-22T08:24:45;15.1;;;13.7;;
64018;SDS011;66942;52.138;5.216;2023-07-22T08:26:21;15.7;;;14.1;;
64018;SDS011;66942;52.138;5.216;2023-07-22T08:29:34;15.0;;;13.6;;
64018;SDS011;66942;52.138;5.216;2023-07-22T08:31:10;13.6;;;12.4;;
64018;SDS011;66942;52.138;5.216;2023-07-22T08:32:46;13.8;;;12.5;;
64018;SDS011;66942;52.138;5.216;2023-07-22T08:35:58;14.4;;;13.0;;
64018;SDS011;66942;52.138;5.216;2023-07-22T08:37:34;13.0;;;11.9;;
64018;SDS011;66942;52.138;5.216;2023-07-22T08:39:10;13.1;;;12.0;;
64018;SDS011;66942;52.138;5.216;2023-07-22T08:40:48;12.6;;;11.5;;
64018;SDS011;66942;52.138;5.216;2023-07-22T08:44:05;13.2;;;12.0;;
64018;SDS011;66942;52.138;5.216;2023-07-22T08:45:46;13.2;;;11.8;;
64018;SDS011;66942;52.138;5.216;2023-07-22T08:47:24;13.9;;;12.7;;
64018;SDS011;66942;52.138;5.216;2023-07-22T08:50:44;13.4;;;12.1;;
64018;SDS011;66942;52.138;5.216;2023-07-22T08:52:24;11.7;;;10.8;;
64018;SDS011;66942;52.138;5.216;2023-07-22T08:54:00;11.1;;;10.3;;
64018;SDS011;66942;52.138;5.216;2023-07-22T08:55:38;11.8;;;10.9;;
64018;SDS011;66942;52.138;5.216;2023-07-22T08:58:53;12.6;;;11.5;;
64018;SDS011;66942;52.138;5.216;2023-07-22T09:00:30;11.3;;;10.3;;
64018;SDS011;66942;52.138;5.216;2023-07-22T09:02:07;11.0;;;10.21;;
64018;SDS011;66942;52.138;5.216;2023-07-22T09:03:48;11.6;;;10.6;;
64018;SDS011;66942;52.138;5.216;2023-07-22T09:07:02;11.0;;;10.1;;
64018;SDS011;66942;52.138;5.216;2023-07-22T09:08:39;9.71;;;8.81;;
64018;SDS011;66942;52.138;5.216;2023-07-22T09:10:15;9.71;;;8.81;;
64018;SDS011;66942;52.138;5.216;2023-07-22T09:13:30;9.9;;;9.1;;
64018;SDS011;66942;52.138;5.216;2023-07-22T09:15:08;8.9;;;8.1;;
64018;SDS011;66942;52.138;5.216;2023-07-22T09:16:47;8.71;;;8.0;;
64018;SDS011;66942;52.138;5.216;2023-07-22T09:18:23;8.0;;;7.3;;
64018;SDS011;66942;52.138;5.216;2023-07-22T09:21:36;8.6;;;7.7;;
64018;SDS011;66942;52.138;5.216;2023-07-22T09:23:12;6.6;;;6.0;;
64018;SDS011;66942;52.138;5.216;2023-07-22T09:24:49;6.0;;;5.4;;
64018;SDS011;66942;52.138;5.216;2023-07-22T09:28:02;6.6;;;6.1;;
64018;SDS011;66942;52.138;5.216;2023-07-22T09:29:38;6.1;;;5.6;;
64018;SDS011;66942;52.138;5.216;2023-07-22T09:31:15;7.1;;;6.5;;
64018;SDS011;66942;52.138;5.216;2023-07-22T09:34:29;6.9;;;6.3;;
64018;SDS011;66942;52.138;5.216;2023-07-22T09:36:06;7.9;;;7.2;;
64018;SDS011;66942;52.138;5.216;2023-07-22T09:37:42;7.8;;;7.0;;
64018;SDS011;66942;52.138;5.216;2023-07-22T09:39:18;7.8;;;7.2;;
64018;SDS011;66942;52.138;5.216;2023-07-22T09:42:31;7.1;;;6.5;;
64018;SDS011;66942;52.138;5.216;2023-07-22T09:44:09;7.1;;;6.5;;
64018;SDS011;66942;52.138;5.216;2023-07-22T09:45:46;7.5;;;6.7;;
64018;SDS011;66942;52.138;5.216;2023-07-22T09:49:02;7.4;;;6.7;;
64018;SDS011;66942;52.138;5.216;2023-07-22T09:50:39;7.5;;;6.9;;
64018;SDS011;66942;52.138;5.216;2023-07-22T09:52:15;7.0;;;6.4;;
64018;SDS011;66942;52.138;5.216;2023-07-22T09:55:36;6.6;;;6.1;;
64018;SDS011;66942;52.138;5.216;2023-07-22T09:57:12;7.1;;;6.3;;
64018;SDS011;66942;52.138;5.216;2023-07-22T09:58:49;6.2;;;5.8;;
64018;SDS011;66942;52.138;5.216;2023-07-22T10:00:28;6.4;;;5.9;;
64018;SDS011;66942;52.138;5.216;2023-07-22T10:03:46;5.8;;;5.3;;
64018;SDS011;66942;52.138;5.216;2023-07-22T10:05:28;6.1;;;5.5;;
64018;SDS011;66942;52.138;5.216;2023-07-22T10:07:08;6.5;;;6.0;;
64018;SDS011;66942;52.138;5.216;2023-07-22T10:08:46;5.6;;;5.11;;
64018;SDS011;66942;52.138;5.216;2023-07-22T10:12:06;5.3;;;4.91;;
64018;SDS011;66942;52.138;5.216;2023-07-22T10:13:43;5.7;;;5.2;;
64018;SDS011;66942;52.138;5.216;2023-07-22T10:15:20;5.2;;;4.7;;
64018;SDS011;66942;52.138;5.216;2023-07-22T10:18:32;4.91;;;4.41;;
64018;SDS011;66942;52.138;5.216;2023-07-22T10:20:10;4.91;;;4.41;;
64018;SDS011;66942;52.138;5.216;2023-07-22T10:21:48;4.3;;;3.9;;
64018;SDS011;66942;52.138;5.216;2023-07-22T10:23:25;4.5;;;4.1;;
64018;SDS011;66942;52.138;5.216;2023-07-22T10:26:41;5.6;;;4.7;;
64018;SDS011;66942;52.138;5.216;2023-07-22T10:28:17;5.2;;;4.7;;
64018;SDS011;66942;52.138;5.216;2023-07-22T10:29:55;5.0;;;4.5;;
64018;SDS011;66942;52.138;5.216;2023-07-22T10:33:07;5.11;;;4.61;;
64018;SDS011;66942;52.138;5.216;2023-07-22T10:34:43;4.3;;;4.0;;
64018;SDS011;66942;52.138;5.216;2023-07-22T10:36:19;4.61;;;4.3;;
64018;SDS011;66942;52.138;5.216;2023-07-22T10:37:56;4.7;;;4.2;;
64018;SDS011;66942;52.138;5.216;2023-07-22T10:41:19;4.91;;;4.41;;
64018;SDS011;66942;52.138;5.216;2023-07-22T10:42:57;5.7;;;4.8;;
64018;SDS011;66942;52.138;5.216;2023-07-22T10:44:38;4.5;;;4.2;;
64018;SDS011;66942;52.138;5.216;2023-07-22T10:47:59;5.2;;;4.7;;
64018;SDS011;66942;52.138;5.216;2023-07-22T10:49:42;4.3;;;3.9;;
64018;SDS011;66942;52.138;5.216;2023-07-22T10:51:23;4.41;;;4.0;;
64018;SDS011;66942;52.138;5.216;2023-07-22T10:53:12;5.11;;;4.41;;
64018;SDS011;66942;52.138;5.216;2023-07-22T10:54:55;5.7;;;4.5;;
64018;SDS011;66942;52.138;5.216;2023-07-22T10:58:07;4.5;;;4.1;;
64018;SDS011;66942;52.138;5.216;2023-07-22T10:59:47;5.3;;;4.61;;
64018;SDS011;66942;52.138;5.216;2023-07-22T11:01:43;4.91;;;4.5;;
64018;SDS011;66942;52.138;5.216;2023-07-22T11:03:19;4.0;;;3.6;;
64018;SDS011;66942;52.138;5.216;2023-07-22T11:06:33;4.2;;;3.8;;
64018;SDS011;66942;52.138;5.216;2023-07-22T11:08:10;4.1;;;3.8;;
64018;SDS011;66942;52.138;5.216;2023-07-22T11:09:46;4.0;;;3.7;;
64018;SDS011;66942;52.138;5.216;2023-07-22T11:11:31;3.8;;;3.4;;
64018;SDS011;66942;52.138;5.216;2023-07-22T11:14:47;3.7;;;3.4;;
64018;SDS011;66942;52.138;5.216;2023-07-22T11:16:24;3.6;;;3.3;;
64018;SDS011;66942;52.138;5.216;2023-07-22T11:18:05;3.7;;;3.4;;
64018;SDS011;66942;52.138;5.216;2023-07-22T11:21:18;3.6;;;3.3;;
64018;SDS011;66942;52.138;5.216;2023-07-22T11:22:54;3.7;;;3.4;;
64018;SDS011;66942;52.138;5.216;2023-07-22T11:24:31;3.5;;;3.2;;
64018;SDS011;66942;52.138;5.216;2023-07-22T11:26:08;5.6;;;3.8;;
64018;SDS011;66942;52.138;5.216;2023-07-22T11:29:21;3.9;;;3.6;;
64018;SDS011;66942;52.138;5.216;2023-07-22T11:30:58;3.3;;;3.0;;
64018;SDS011;66942;52.138;5.216;2023-07-22T11:32:36;3.7;;;3.4;;
64018;SDS011;66942;52.138;5.216;2023-07-22T11:35:56;3.6;;;3.3;;
64018;SDS011;66942;52.138;5.216;2023-07-22T11:37:32;4.3;;;3.9;;
64018;SDS011;66942;52.138;5.216;2023-07-22T11:39:09;4.3;;;3.9;;
64018;SDS011;66942;52.138;5.216;2023-07-22T11:40:46;4.0;;;3.4;;
64018;SDS011;66942;52.138;5.216;2023-07-22T11:44:00;3.7;;;3.4;;
64018;SDS011;66942;52.138;5.216;2023-07-22T11:45:37;3.6;;;3.3;;
64018;SDS011;66942;52.138;5.216;2023-07-22T11:47:15;3.5;;;3.2;;
64018;SDS011;66942;52.138;5.216;2023-07-22T11:50:31;3.4;;;3.1;;
64018;SDS011;66942;52.138;5.216;2023-07-22T11:52:09;3.3;;;3.0;;
64018;SDS011;66942;52.138;5.216;2023-07-22T11:53:52;4.0;;;3.3;;
64018;SDS011;66942;52.138;5.216;2023-07-22T11:55:29;3.2;;;2.9;;
64018;SDS011;66942;52.138;5.216;2023-07-22T11:58:48;3.7;;;3.4;;
64018;SDS011;66942;52.138;5.216;2023-07-22T12:00:25;4.7;;;3.5;;
64018;SDS011;66942;52.138;5.216;2023-07-22T12:02:01;4.7;;;3.5;;
64018;SDS011;66942;52.138;5.216;2023-07-22T12:05:20;4.3;;;3.4;;
64018;SDS011;66942;52.138;5.216;2023-07-22T12:06:57;3.7;;;3.4;;
64018;SDS011;66942;52.138;5.216;2023-07-22T12:08:33;3.6;;;3.3;;
64018;SDS011;66942;52.138;5.216;2023-07-22T12:10:11;4.0;;;3.6;;
64018;SDS011;66942;52.138;5.216;2023-07-22T12:13:35;4.2;;;3.8;;
64018;SDS011;66942;52.138;5.216;2023-07-22T12:15:12;4.0;;;3.6;;
64018;SDS011;66942;52.138;5.216;2023-07-22T12:16:53;4.8;;;3.6;;
64018;SDS011;66942;52.138;5.216;2023-07-22T12:18:40;4.61;;;4.2;;
64018;SDS011;66942;52.138;5.216;2023-07-22T12:21:59;4.61;;;3.9;;
64018;SDS011;66942;52.138;5.216;2023-07-22T12:23:35;4.5;;;4.1;;
64018;SDS011;66942;52.138;5.216;2023-07-22T12:25:12;5.2;;;4.0;;
64018;SDS011;66942;52.138;5.216;2023-07-22T12:26:48;4.1;;;3.8;;
64018;SDS011;66942;52.138;5.216;2023-07-22T12:30:00;4.5;;;3.7;;
64018;SDS011;66942;52.138;5.216;2023-07-22T12:31:37;4.7;;;4.41;;
64018;SDS011;66942;52.138;5.216;2023-07-22T12:33:13;4.7;;;4.3;;
64018;SDS011;66942;52.138;5.216;2023-07-22T12:36:25;4.61;;;4.2;;
64018;SDS011;66942;52.138;5.216;2023-07-22T12:38:01;4.91;;;4.5;;
64018;SDS011;66942;52.138;5.216;2023-07-22T12:39:37;4.91;;;4.41;;
64018;SDS011;66942;52.138;5.216;2023-07-22T12:42:49;4.91;;;4.41;;